createdAt,value
2016-06-19T00:00:08.964Z,20.78
2016-06-19T00:01:07.640Z,20.77
2016-06-19T00:02:07.643Z,20.78
2016-06-19T00:03:08.272Z,20.84
2016-06-19T00:04:07.603Z,20.78
2016-06-19T00:05:08.888Z,20.75
2016-06-19T00:06:08.235Z,20.81
2016-06-19T00:07:08.224Z,20.74
2016-06-19T00:08:08.211Z,20.77
2016-06-19T00:09:08.855Z,20.69
2016-06-19T00:10:08.813Z,20.81
2016-06-19T00:11:08.799Z,20.81
2016-06-19T00:12:08.803Z,20.82
2016-06-19T00:13:07.463Z,20.87
2016-06-19T00:14:07.466Z,20.92
2016-06-19T00:15:08.752Z,20.84
2016-06-19T00:16:08.098Z,20.72
2016-06-19T00:17:07.414Z,20.67
2016-06-19T00:18:08.058Z,20.84
2016-06-19T00:19:08.046Z,20.69
2016-06-19T00:20:08.675Z,20.82
2016-06-19T00:21:08.007Z,20.72
2016-06-19T00:22:08.010Z,20.78
2016-06-19T00:23:08.622Z,20.66
2016-06-19T00:24:07.313Z,20.67
2016-06-19T00:25:08.614Z,20.74
2016-06-19T00:26:08.586Z,20.67
2016-06-19T00:27:07.277Z,20.65
2016-06-19T00:28:07.265Z,20.67
2016-06-19T00:29:08.549Z,20.52
2016-06-19T00:30:08.537Z,20.59
2016-06-19T00:31:07.885Z,20.5
2016-06-19T00:32:07.872Z,20.5
2016-06-19T00:33:07.845Z,20.59
2016-06-19T00:34:08.488Z,20.52
2016-06-19T00:35:07.164Z,20.56
2016-06-19T00:36:07.152Z,20.59
2016-06-19T00:37:07.156Z,20.51
2016-06-19T00:38:07.768Z,20.51
2016-06-19T00:39:07.771Z,20.56
2016-06-19T00:40:07.744Z,20.69
2016-06-19T00:41:07.091Z,20.65
2016-06-19T00:42:07.720Z,20.56
2016-06-19T00:43:07.770Z,20.51
2016-06-19T00:44:07.039Z,20.5
2016-06-19T00:45:07.027Z,20.48
2016-06-19T00:46:07.687Z,20.43
2016-06-19T00:47:07.643Z,20.41
2016-06-19T00:48:06.990Z,20.4
2016-06-19T00:49:08.275Z,20.37
2016-06-19T00:50:07.591Z,20.41
2016-06-19T00:51:07.594Z,20.41
2016-06-19T00:52:07.583Z,20.47
2016-06-19T00:53:08.211Z,20.41
2016-06-19T00:54:07.542Z,20.39
2016-06-19T00:55:06.889Z,20.43
2016-06-19T00:56:06.877Z,20.47
2016-06-19T00:57:07.522Z,20.44
2016-06-19T00:58:08.134Z,20.41
2016-06-19T00:59:08.154Z,20.29
2016-06-19T01:00:06.813Z,20.21
2016-06-19T01:01:06.801Z,20.13
2016-06-19T01:02:07.445Z,20.16
2016-06-19T01:03:07.418Z,20.25
2016-06-19T01:04:07.405Z,20.21
2016-06-19T01:05:07.377Z,20.34
2016-06-19T01:06:06.724Z,20.36
2016-06-19T01:07:07.368Z,20.44
2016-06-19T01:08:07.340Z,20.32
2016-06-19T01:09:06.688Z,20.26
2016-06-19T01:10:07.316Z,20.25
2016-06-19T01:11:07.320Z,20.39
2016-06-19T01:12:07.933Z,20.29
2016-06-19T01:13:06.623Z,20.36
2016-06-19T01:14:07.924Z,20.28
2016-06-19T01:15:07.255Z,20.16
2016-06-19T01:16:06.603Z,20.25
2016-06-19T01:17:07.872Z,20.25
2016-06-19T01:18:07.860Z,20.29
2016-06-19T01:19:07.848Z,20.22
2016-06-19T01:20:07.179Z,20.22
2016-06-19T01:21:07.823Z,20.21
2016-06-19T01:22:07.186Z,20.29
2016-06-19T01:23:06.501Z,20.16
2016-06-19T01:24:07.115Z,20.1
2016-06-19T01:25:06.462Z,20.11
2016-06-19T01:26:07.090Z,20.09
2016-06-19T01:27:07.079Z,19.95
2016-06-19T01:28:07.722Z,20
2016-06-19T01:29:07.053Z,20.02
2016-06-19T01:30:07.042Z,20.07
2016-06-19T01:31:07.686Z,20.11
2016-06-19T01:32:07.002Z,20.14
2016-06-19T01:33:06.364Z,20.09
2016-06-19T01:34:06.337Z,20
2016-06-19T01:35:06.324Z,20.1
2016-06-19T01:36:07.594Z,20.02
2016-06-19T01:37:06.941Z,20.07
2016-06-19T01:38:07.584Z,20.06
2016-06-19T01:39:06.901Z,20.07
2016-06-19T01:40:06.905Z,20.02
2016-06-19T01:41:06.236Z,20.14
2016-06-19T01:42:06.223Z,20.1
2016-06-19T01:43:07.493Z,20.14
2016-06-19T01:44:07.480Z,20.21
2016-06-19T01:45:06.172Z,20.11
2016-06-19T01:46:06.816Z,20.13
2016-06-19T01:47:06.787Z,20.31
2016-06-19T01:48:06.791Z,20.32
2016-06-19T01:49:06.764Z,20.26
2016-06-19T01:50:06.751Z,20.26
2016-06-19T01:51:07.411Z,20.25
2016-06-19T01:52:06.727Z,20.14
2016-06-19T01:53:06.716Z,20.24
2016-06-19T01:54:06.703Z,20.47
2016-06-19T01:55:06.038Z,20.29
2016-06-19T01:56:07.312Z,20.25
2016-06-19T01:57:06.678Z,20.34
2016-06-19T01:58:06.654Z,20.36
2016-06-19T01:59:05.988Z,20.34
2016-06-19T02:00:07.290Z,20.31
2016-06-19T02:01:07.264Z,20.32
2016-06-19T02:02:07.236Z,20.29
2016-06-19T02:03:06.602Z,20.21
2016-06-19T02:04:05.934Z,20.24
2016-06-19T02:05:05.907Z,20.24
2016-06-19T02:06:06.551Z,20.31
2016-06-19T02:07:06.540Z,20.39
2016-06-19T02:08:06.544Z,20.37
2016-06-19T02:09:05.860Z,20.25
2016-06-19T02:10:07.144Z,20.26
2016-06-19T02:11:07.148Z,20.26
2016-06-19T02:12:05.823Z,20.32
2016-06-19T02:13:05.795Z,20.36
2016-06-19T02:14:05.783Z,20.25
2016-06-19T02:15:07.084Z,20.21
2016-06-19T02:16:06.430Z,20.37
2016-06-19T02:17:05.746Z,20.36
2016-06-19T02:18:05.719Z,20.36
2016-06-19T02:19:07.004Z,20.37
2016-06-19T02:20:06.991Z,20.26
2016-06-19T02:21:06.995Z,20.28
2016-06-19T02:22:06.327Z,20.26
2016-06-19T02:23:05.658Z,20.28
2016-06-19T02:24:05.677Z,20.1
2016-06-19T02:25:05.634Z,20.31
2016-06-19T02:26:06.903Z,20
2016-06-19T02:27:05.610Z,20.13
2016-06-19T02:28:06.238Z,20.11
2016-06-19T02:29:05.570Z,20.09
2016-06-19T02:30:06.213Z,20.11
2016-06-19T02:31:06.858Z,20.16
2016-06-19T02:32:06.173Z,20.07
2016-06-19T02:33:06.162Z,19.99
2016-06-19T02:34:07.009Z,20.07
2016-06-19T02:35:06.794Z,20.18
2016-06-19T02:36:06.766Z,20.1
2016-06-19T02:37:06.112Z,20.09
2016-06-19T02:38:05.491Z,20.14
2016-06-19T02:39:06.729Z,20.1
2016-06-19T02:40:06.716Z,20.06
2016-06-19T02:41:06.048Z,20.04
2016-06-19T02:42:06.052Z,20.1
2016-06-19T02:43:06.040Z,20.1
2016-06-19T02:44:05.372Z,20.11
2016-06-19T02:45:06.000Z,20.02
2016-06-19T02:46:05.971Z,20.04
2016-06-19T02:47:05.319Z,19.92
2016-06-19T02:48:05.308Z,20.04
2016-06-19T02:49:05.294Z,20.07
2016-06-19T02:50:05.267Z,20.1
2016-06-19T02:51:05.271Z,20.11
2016-06-19T02:52:05.915Z,20
2016-06-19T02:53:05.230Z,20.06
2016-06-19T02:54:05.874Z,20.16
2016-06-19T02:55:06.488Z,20.11
2016-06-19T02:56:05.835Z,20.13
2016-06-19T02:57:05.838Z,20.07
2016-06-19T02:58:05.170Z,20.13
2016-06-19T02:59:06.439Z,20.13
2016-06-19T03:00:05.145Z,20.11
2016-06-19T03:01:06.430Z,20.07
2016-06-19T03:02:05.106Z,20.13
2016-06-19T03:03:06.405Z,20.26
2016-06-19T03:04:05.175Z,20.11
2016-06-19T03:05:05.709Z,19.99
2016-06-19T03:06:05.057Z,20.16
2016-06-19T03:07:05.685Z,20.07
2016-06-19T03:08:05.017Z,20.1
2016-06-19T03:09:05.661Z,20.13
2016-06-19T03:10:05.633Z,20.11
2016-06-19T03:11:05.637Z,20
2016-06-19T03:12:05.608Z,20.09
2016-06-19T03:13:05.597Z,19.94
2016-06-19T03:14:06.273Z,20.03
2016-06-19T03:15:06.229Z,20.06
2016-06-19T03:16:05.560Z,20.1
2016-06-19T03:17:04.892Z,20.09
2016-06-19T03:18:06.193Z,20.07
2016-06-19T03:19:06.148Z,20.16
2016-06-19T03:20:05.496Z,20.09
2016-06-19T03:21:05.484Z,20.13
2016-06-19T03:22:04.815Z,20.1
2016-06-19T03:23:05.459Z,20.26
2016-06-19T03:24:06.088Z,20.11
2016-06-19T03:25:05.436Z,20.25
2016-06-19T03:26:05.407Z,20.31
2016-06-19T03:27:05.395Z,20.29
2016-06-19T03:28:06.039Z,20.25
2016-06-19T03:29:05.355Z,20.18
2016-06-19T03:30:05.359Z,20.14
2016-06-19T03:31:04.706Z,20.13
2016-06-19T03:32:07.662Z,20.26
2016-06-19T03:33:05.947Z,20.25
2016-06-19T03:34:05.310Z,20.21
2016-06-19T03:35:05.923Z,20.22
2016-06-19T03:36:05.269Z,20.36
2016-06-19T03:37:05.258Z,20.26
2016-06-19T03:38:05.261Z,20.24
2016-06-19T03:39:05.874Z,20.31
2016-06-19T03:40:05.205Z,20.26
2016-06-19T03:41:05.209Z,20.28
2016-06-19T03:42:05.181Z,20.13
2016-06-19T03:43:05.154Z,20.24
2016-06-19T03:44:05.157Z,20.1
2016-06-19T03:45:04.488Z,20.1
2016-06-19T03:46:05.133Z,20.14
2016-06-19T03:47:05.762Z,20.11
2016-06-19T03:48:05.107Z,20.14
2016-06-19T03:49:05.081Z,20.34
2016-06-19T03:50:05.068Z,20.36
2016-06-19T03:51:05.056Z,20.44
2016-06-19T03:52:05.043Z,20.39
2016-06-19T03:53:05.673Z,20.37
2016-06-19T03:54:05.004Z,20.41
2016-06-19T03:55:04.351Z,20.28
2016-06-19T03:56:04.324Z,20.32
2016-06-19T03:57:04.967Z,20.39
2016-06-19T03:58:05.596Z,20.31
2016-06-19T03:59:04.943Z,20.21
2016-06-19T04:00:04.275Z,20.32
2016-06-19T04:01:04.247Z,20.34
2016-06-19T04:02:04.891Z,20.26
2016-06-19T04:03:05.520Z,20.28
2016-06-19T04:04:04.226Z,20.29
2016-06-19T04:05:04.855Z,20.19
2016-06-19T04:06:05.483Z,20.24
2016-06-19T04:07:05.471Z,20.37
2016-06-19T04:08:04.818Z,20.22
2016-06-19T04:09:04.166Z,20.32
2016-06-19T04:10:04.778Z,20.25
2016-06-19T04:11:04.782Z,20.37
2016-06-19T04:12:04.771Z,20.32
2016-06-19T04:13:04.746Z,20.32
2016-06-19T04:14:04.078Z,20.39
2016-06-19T04:15:04.724Z,20.39
2016-06-19T04:16:04.041Z,20.4
2016-06-19T04:17:05.342Z,20.43
2016-06-19T04:18:04.675Z,20.41
2016-06-19T04:19:04.007Z,20.36
2016-06-19T04:20:04.652Z,20.25
2016-06-19T04:21:04.641Z,20.28
2016-06-19T04:22:04.628Z,20.21
2016-06-19T04:23:04.615Z,20.31
2016-06-19T04:24:03.947Z,20.26
2016-06-19T04:25:03.936Z,20.29
2016-06-19T04:26:03.908Z,20.44
2016-06-19T04:27:05.207Z,20.39
2016-06-19T04:28:04.540Z,20.25
2016-06-19T04:29:04.527Z,20.29
2016-06-19T04:30:04.531Z,20.26
2016-06-19T04:31:05.143Z,20.41
2016-06-19T04:32:05.131Z,20.43
2016-06-19T04:33:03.838Z,20.37
2016-06-19T04:34:03.811Z,20.37
2016-06-19T04:35:04.439Z,20.36
2016-06-19T04:36:04.410Z,20.37
2016-06-19T04:37:05.039Z,20.36
2016-06-19T04:38:04.403Z,20.32
2016-06-19T04:39:04.373Z,20.5
2016-06-19T04:40:03.721Z,20.48
2016-06-19T04:41:04.350Z,20.48
2016-06-19T04:42:04.338Z,20.4
2016-06-19T04:43:04.326Z,20.51
2016-06-19T04:44:04.299Z,20.48
2016-06-19T04:45:04.301Z,20.44
2016-06-19T04:46:04.930Z,20.47
2016-06-19T04:47:03.621Z,20.52
2016-06-19T04:48:03.609Z,20.5
2016-06-19T04:49:04.237Z,20.52
2016-06-19T04:50:04.881Z,20.6
2016-06-19T04:51:04.212Z,20.56
2016-06-19T04:52:03.544Z,20.56
2016-06-19T04:53:04.188Z,20.56
2016-06-19T04:54:03.535Z,20.6
2016-06-19T04:55:04.148Z,20.63
2016-06-19T04:56:03.480Z,20.59
2016-06-19T04:57:04.124Z,20.63
2016-06-19T04:58:03.471Z,20.6
2016-06-19T04:59:04.740Z,20.63
2016-06-19T05:00:04.728Z,20.4
2016-06-19T05:01:04.075Z,20.51
2016-06-19T05:02:04.048Z,20.55
2016-06-19T05:03:04.036Z,20.43
2016-06-19T05:04:04.023Z,20.44
2016-06-19T05:05:03.355Z,20.43
2016-06-19T05:06:03.999Z,20.55
2016-06-19T05:07:04.628Z,20.47
2016-06-19T05:08:03.318Z,20.5
2016-06-19T05:09:03.306Z,20.51
2016-06-19T05:10:04.606Z,20.41
2016-06-19T05:11:03.282Z,20.51
2016-06-19T05:12:03.910Z,20.59
2016-06-19T05:13:03.257Z,20.48
2016-06-19T05:14:03.886Z,20.52
2016-06-19T05:15:04.530Z,20.6
2016-06-19T05:16:03.846Z,20.5
2016-06-19T05:17:03.193Z,20.39
2016-06-19T05:18:03.166Z,20.39
2016-06-19T05:19:03.809Z,20.4
2016-06-19T05:20:04.437Z,20.48
2016-06-19T05:21:03.785Z,20.39
2016-06-19T05:22:03.773Z,20.41
2016-06-19T05:23:03.105Z,20.4
2016-06-19T05:24:03.749Z,20.4
2016-06-19T05:25:03.737Z,20.25
2016-06-19T05:26:03.708Z,20.39
2016-06-19T05:27:03.697Z,20.43
2016-06-19T05:28:03.684Z,20.6
2016-06-19T05:29:03.672Z,20.55
2016-06-19T05:30:04.300Z,20.55
2016-06-19T05:31:03.632Z,20.6
2016-06-19T05:32:04.277Z,20.62
2016-06-19T05:33:02.951Z,20.55
2016-06-19T05:34:04.252Z,20.62
2016-06-19T05:35:03.600Z,20.59
2016-06-19T05:36:03.571Z,20.6
2016-06-19T05:37:03.560Z,20.59
2016-06-19T05:38:03.546Z,20.58
2016-06-19T05:39:04.191Z,20.51
2016-06-19T05:40:03.523Z,20.52
2016-06-19T05:41:02.839Z,20.67
2016-06-19T05:42:04.123Z,20.66
2016-06-19T05:43:04.143Z,20.75
2016-06-19T05:44:02.802Z,20.69
2016-06-19T05:45:02.806Z,20.67
2016-06-19T05:46:03.449Z,20.81
2016-06-19T05:47:02.750Z,20.72
2016-06-19T05:48:03.395Z,20.7
2016-06-19T05:49:04.053Z,20.7
2016-06-19T05:50:03.369Z,20.69
2016-06-19T05:51:03.358Z,20.8
2016-06-19T05:52:03.346Z,20.69
2016-06-19T05:53:03.973Z,20.69
2016-06-19T05:54:03.978Z,20.82
2016-06-19T05:55:02.652Z,20.75
2016-06-19T05:56:03.281Z,20.66
2016-06-19T05:57:02.629Z,20.78
2016-06-19T05:58:03.257Z,20.87
2016-06-19T05:59:03.901Z,20.78
2016-06-19T06:00:02.575Z,20.82
2016-06-19T06:01:03.220Z,20.74
2016-06-19T06:02:03.849Z,20.7
2016-06-19T06:03:03.180Z,20.87
2016-06-19T06:04:03.167Z,20.87
2016-06-19T06:05:03.156Z,20.97
2016-06-19T06:06:03.784Z,21.03
2016-06-19T06:07:03.132Z,20.96
2016-06-19T06:08:03.761Z,20.97
2016-06-19T06:09:02.451Z,20.97
2016-06-19T06:10:02.438Z,20.97
2016-06-19T06:11:03.067Z,21.02
2016-06-19T06:12:02.400Z,21.07
2016-06-19T06:13:03.684Z,21.03
2016-06-19T06:14:02.375Z,21.02
2016-06-19T06:15:02.363Z,20.99
2016-06-19T06:16:02.350Z,21.02
2016-06-19T06:17:02.979Z,21.15
2016-06-19T06:18:03.623Z,21.03
2016-06-19T06:19:02.313Z,21.12
2016-06-19T06:20:03.598Z,21.14
2016-06-19T06:21:02.273Z,21.18
2016-06-19T06:22:02.918Z,21.18
2016-06-19T06:23:02.890Z,21.21
2016-06-19T06:24:03.534Z,21.15
2016-06-19T06:25:02.882Z,21.17
2016-06-19T06:26:02.212Z,21.09
2016-06-19T06:27:02.841Z,21.2
2016-06-19T06:28:03.476Z,21.2
2016-06-19T06:29:02.829Z,20.99
2016-06-19T06:30:02.839Z,21.12
2016-06-19T06:31:03.473Z,21.09
2016-06-19T06:32:02.793Z,21.14
2016-06-19T06:33:02.799Z,21.12
2016-06-19T06:34:02.134Z,21.2
2016-06-19T06:35:02.780Z,21.14
2016-06-19T06:36:02.755Z,21.11
2016-06-19T06:37:03.401Z,21.18
2016-06-19T06:38:02.748Z,21.18
2016-06-19T06:39:02.738Z,21.24
2016-06-19T06:40:02.710Z,21.22
2016-06-19T06:41:02.683Z,21.25
2016-06-19T06:42:02.688Z,21.21
2016-06-19T06:43:03.300Z,21.32
2016-06-19T06:44:01.991Z,21.24
2016-06-19T06:45:02.635Z,21.33
2016-06-19T06:46:03.280Z,21.36
2016-06-19T06:47:02.596Z,21.48
2016-06-19T06:48:02.599Z,21.25
2016-06-19T06:49:01.947Z,21.39
2016-06-19T06:50:02.575Z,21.5
2016-06-19T06:51:03.203Z,21.5
2016-06-19T06:52:01.894Z,21.45
2016-06-19T06:53:02.538Z,21.62
2016-06-19T06:54:01.854Z,21.66
2016-06-19T06:55:02.498Z,21.64
2016-06-19T06:56:02.471Z,21.51
2016-06-19T06:57:02.474Z,21.64
2016-06-19T06:58:01.806Z,21.57
2016-06-19T06:59:02.449Z,21.57
2016-06-19T07:00:01.797Z,21.67
2016-06-19T07:01:02.409Z,21.54
2016-06-19T07:02:01.756Z,21.61
2016-06-19T07:03:01.745Z,21.6
2016-06-19T07:04:02.357Z,21.66
2016-06-19T07:05:02.361Z,21.72
2016-06-19T07:06:02.348Z,21.8
2016-06-19T07:07:02.962Z,21.82
2016-06-19T07:08:01.669Z,21.83
2016-06-19T07:09:02.296Z,21.82
2016-06-19T07:10:02.956Z,21.79
2016-06-19T07:11:02.912Z,21.8
2016-06-19T07:12:01.619Z,21.83
2016-06-19T07:13:02.248Z,21.83
2016-06-19T07:14:02.236Z,21.92
2016-06-19T07:15:02.223Z,21.82
2016-06-19T07:16:02.851Z,21.92
2016-06-19T07:17:01.527Z,21.92
2016-06-19T07:18:02.187Z,22
2016-06-19T07:19:02.831Z,22.07
2016-06-19T07:20:02.163Z,22.07
2016-06-19T07:21:01.479Z,22.02
2016-06-19T07:22:02.122Z,21.96
2016-06-19T07:23:02.095Z,22.07
2016-06-19T07:24:02.082Z,22.08
2016-06-19T07:25:02.727Z,22
2016-06-19T07:26:02.058Z,21.98
2016-06-19T07:27:01.421Z,22.04
2016-06-19T07:28:02.050Z,22.17
2016-06-19T07:29:02.677Z,22.23
2016-06-19T07:30:02.666Z,22.25
2016-06-19T07:31:01.998Z,22.18
2016-06-19T07:32:02.016Z,22.1
2016-06-19T07:33:01.317Z,22.14
2016-06-19T07:34:01.961Z,22.13
2016-06-19T07:35:02.606Z,22.23
2016-06-19T07:36:01.296Z,22.25
2016-06-19T07:37:01.924Z,22.26
2016-06-19T07:38:02.553Z,22.23
2016-06-19T07:39:01.884Z,22.2
2016-06-19T07:40:01.873Z,22.28
2016-06-19T07:41:01.860Z,22.17
2016-06-19T07:42:01.848Z,22.33
2016-06-19T07:43:01.192Z,22.32
2016-06-19T07:44:01.823Z,22.25
2016-06-19T07:45:01.151Z,22.33
2016-06-19T07:46:01.800Z,22.22
2016-06-19T07:47:01.772Z,22.23
2016-06-19T07:48:01.791Z,22.25
2016-06-19T07:49:02.404Z,22.26
2016-06-19T07:50:01.107Z,22.3
2016-06-19T07:51:01.078Z,22.32
2016-06-19T07:52:01.066Z,22.26
2016-06-19T07:53:01.714Z,22.36
2016-06-19T07:54:01.027Z,22.29
2016-06-19T07:55:01.655Z,22.35
2016-06-19T07:56:01.675Z,22.39
2016-06-19T07:57:01.646Z,22.38
2016-06-19T07:58:00.978Z,22.41
2016-06-19T07:59:01.622Z,22.51
2016-06-19T08:00:01.595Z,22.59
2016-06-19T08:01:02.241Z,22.55
2016-06-19T08:02:01.585Z,22.59
2016-06-19T08:03:00.917Z,22.65
2016-06-19T08:04:00.905Z,22.62
2016-06-19T08:05:01.549Z,22.66
2016-06-19T08:06:02.177Z,22.7
2016-06-19T08:07:01.509Z,22.78
2016-06-19T08:08:01.482Z,22.88
2016-06-19T08:09:00.844Z,22.88
2016-06-19T08:10:00.817Z,22.76
2016-06-19T08:11:02.116Z,22.9
2016-06-19T08:12:02.105Z,22.78
2016-06-19T08:13:01.420Z,22.93
2016-06-19T08:14:00.783Z,22.96
2016-06-19T08:15:01.397Z,23.03
2016-06-19T08:16:00.744Z,22.91
2016-06-19T08:17:02.029Z,23
2016-06-19T08:18:00.718Z,23.09
2016-06-19T08:19:01.347Z,23.09
2016-06-19T08:20:01.336Z,23.12
2016-06-19T08:21:01.979Z,23.21
2016-06-19T08:22:01.952Z,23.25
2016-06-19T08:23:00.658Z,23.31
2016-06-19T08:24:00.631Z,23.27
2016-06-19T08:25:00.634Z,23.27
2016-06-19T08:26:01.262Z,23.32
2016-06-19T08:27:01.250Z,23.41
2016-06-19T08:28:00.597Z,23.56
2016-06-19T08:29:01.210Z,23.62
2016-06-19T08:30:01.854Z,23.65
2016-06-19T08:31:01.202Z,23.4
2016-06-19T08:32:01.189Z,23.59
2016-06-19T08:33:00.506Z,23.78
2016-06-19T08:34:01.149Z,23.81
2016-06-19T08:35:01.825Z,23.74
2016-06-19T08:36:01.125Z,23.78
2016-06-19T08:37:00.472Z,23.8
2016-06-19T08:38:01.741Z,23.81
2016-06-19T08:39:00.432Z,23.74
2016-06-19T08:40:01.077Z,23.84
2016-06-19T08:41:01.065Z,23.86
2016-06-19T08:42:01.037Z,23.93
2016-06-19T08:43:01.696Z,23.86
2016-06-19T08:44:01.027Z,23.92
2016-06-19T08:45:01.658Z,23.88
2016-06-19T08:46:01.009Z,23.87
2016-06-19T08:47:00.343Z,23.96
2016-06-19T08:48:00.990Z,23.98
2016-06-19T08:49:01.605Z,24.13
2016-06-19T08:50:00.954Z,24.16
2016-06-19T08:51:00.958Z,24.23
2016-06-19T08:52:00.931Z,24.23
2016-06-19T08:53:01.576Z,24.18
2016-06-19T08:54:01.581Z,24.28
2016-06-19T08:55:01.554Z,24.36
2016-06-19T08:56:00.902Z,24.21
2016-06-19T08:57:00.874Z,24.24
2016-06-19T08:58:01.518Z,24.28
2016-06-19T08:59:00.851Z,24.3
2016-06-19T09:00:00.838Z,24.38
2016-06-19T09:01:00.186Z,24.35
2016-06-19T09:02:00.174Z,24.32
2016-06-19T09:03:00.803Z,24.3
2016-06-19T09:04:01.446Z,24.36
2016-06-19T09:05:01.434Z,24.54
2016-06-19T09:06:00.109Z,24.58
2016-06-19T09:07:01.425Z,24.7
2016-06-19T09:08:00.741Z,24.69
2016-06-19T09:09:00.073Z,24.78
2016-06-19T09:10:01.358Z,24.8
2016-06-19T09:11:00.048Z,24.81
2016-06-19T09:12:00.036Z,24.8
2016-06-19T09:13:01.321Z,24.88
2016-06-19T09:14:01.308Z,24.88
2016-06-19T09:15:00.640Z,24.91
2016-06-19T09:16:01.300Z,25.01
2016-06-19T09:17:01.272Z,24.92
2016-06-19T09:18:00.636Z,25.01
2016-06-19T09:19:00.608Z,25.06
2016-06-19T09:20:00.596Z,25.1
2016-06-19T09:21:00.583Z,25.1
2016-06-19T09:22:01.228Z,25.16
2016-06-19T09:23:00.558Z,25.11
2016-06-19T09:24:00.546Z,25.11
2016-06-19T09:25:00.534Z,25.13
2016-06-19T09:25:59.866Z,25.11
2016-06-19T09:27:01.151Z,25.21
2016-06-19T09:28:01.154Z,25.26
2016-06-19T09:28:59.830Z,25.18
2016-06-19T09:30:01.129Z,25.32
2016-06-19T09:31:01.149Z,25.31
2016-06-19T09:31:59.793Z,25.46
2016-06-19T09:32:59.782Z,25.33
2016-06-19T09:34:00.425Z,25.43
2016-06-19T09:35:00.429Z,25.36
2016-06-19T09:36:01.056Z,25.44
2016-06-19T09:36:59.732Z,25.41
2016-06-19T09:38:00.376Z,25.51
2016-06-19T09:38:59.708Z,25.54
2016-06-19T09:40:01.024Z,25.62
2016-06-19T09:41:00.995Z,25.69
2016-06-19T09:42:00.327Z,25.72
2016-06-19T09:42:59.659Z,25.65
2016-06-19T09:44:00.944Z,25.72
2016-06-19T09:45:00.291Z,25.84
2016-06-19T09:46:00.263Z,25.84
2016-06-19T09:46:59.626Z,25.83
2016-06-19T09:48:00.254Z,25.91
2016-06-19T09:49:00.226Z,25.88
2016-06-19T09:50:00.215Z,25.95
2016-06-19T09:51:00.874Z,26.07
2016-06-19T09:52:00.862Z,26
2016-06-19T09:52:59.538Z,26.05
2016-06-19T09:54:00.182Z,26.06
2016-06-19T09:55:00.169Z,26.09
2016-06-19T09:56:00.173Z,26.07
2016-06-19T09:57:00.160Z,26.06
2016-06-19T09:58:00.789Z,26.19
2016-06-19T09:58:59.464Z,26.22
2016-06-19T10:00:00.765Z,26.28
2016-06-19T10:00:59.456Z,26.31
2016-06-19T10:02:00.740Z,26.36
2016-06-19T10:02:59.431Z,26.36
2016-06-19T10:04:00.076Z,26.43
2016-06-19T10:05:00.048Z,26.44
2016-06-19T10:06:00.035Z,26.51
2016-06-19T10:07:00.024Z,26.48
2016-06-19T10:08:00.667Z,26.52
2016-06-19T10:08:59.999Z,26.6
2016-06-19T10:09:59.987Z,26.62
2016-06-19T10:10:59.991Z,26.62
2016-06-19T10:11:59.978Z,26.66
2016-06-19T10:13:00.622Z,26.66
2016-06-19T10:13:59.938Z,26.75
2016-06-19T10:14:59.301Z,26.88
2016-06-19T10:15:59.273Z,26.96
2016-06-19T10:16:59.276Z,27.07
2016-06-19T10:17:59.249Z,27.07
2016-06-19T10:18:59.893Z,27.07
2016-06-19T10:19:59.881Z,27.12
2016-06-19T10:20:59.228Z,27.17
2016-06-19T10:21:59.216Z,27.25
2016-06-19T10:22:59.204Z,27.17
2016-06-19T10:24:00.489Z,27.22
2016-06-19T10:25:00.476Z,27.35
2016-06-19T10:25:59.167Z,27.37
2016-06-19T10:26:59.811Z,27.45
2016-06-19T10:27:59.799Z,27.44
2016-06-19T10:28:59.787Z,27.49
2016-06-19T10:30:00.431Z,27.47
2016-06-19T10:30:59.107Z,27.49
2016-06-19T10:32:00.392Z,27.6
2016-06-19T10:32:59.754Z,27.74
2016-06-19T10:33:59.727Z,27.71
2016-06-19T10:34:59.074Z,27.82
2016-06-19T10:35:59.061Z,27.92
2016-06-19T10:37:00.346Z,27.9
2016-06-19T10:37:59.693Z,27.96
2016-06-19T10:38:59.024Z,28.02
2016-06-19T10:40:00.309Z,28.27
2016-06-19T10:41:00.297Z,28.42
2016-06-19T10:41:59.645Z,28.37
2016-06-19T10:42:59.008Z,28.6
2016-06-19T10:43:58.995Z,28.78
2016-06-19T10:44:59.624Z,28.82
2016-06-19T10:45:58.954Z,28.96
2016-06-19T10:46:59.599Z,29.08
2016-06-19T10:48:00.227Z,29.22
2016-06-19T10:48:59.575Z,29.29
2016-06-19T10:49:59.594Z,29.29
2016-06-19T10:50:59.551Z,29.14
2016-06-19T10:51:59.539Z,29.24
2016-06-19T10:52:58.885Z,29.34
2016-06-19T10:53:59.530Z,29.23
2016-06-19T10:55:00.174Z,29.13
2016-06-19T10:55:58.849Z,29.32
2016-06-19T10:56:59.492Z,29.6
2016-06-19T10:57:59.496Z,29.68
2016-06-19T10:58:59.469Z,29.82
2016-06-19T11:00:00.128Z,29.95
2016-06-19T11:00:59.461Z,29.82
2016-06-19T11:01:59.466Z,29.66
2016-06-19T11:02:59.439Z,29.78
2016-06-19T11:03:58.788Z,29.45
2016-06-19T11:05:00.090Z,29.94
2016-06-19T11:05:58.766Z,30.25
2016-06-19T11:06:58.754Z,30.18
2016-06-19T11:08:00.039Z,30.21
2016-06-19T11:08:59.403Z,30.59
2016-06-19T11:09:59.360Z,30.65
2016-06-19T11:10:59.364Z,30.77
2016-06-19T11:11:59.368Z,30.54
2016-06-19T11:12:59.997Z,30.66
2016-06-19T11:13:59.984Z,30.18
2016-06-19T11:14:59.974Z,30
2016-06-19T11:15:59.977Z,30.31
2016-06-19T11:16:59.948Z,30.48
2016-06-19T11:17:59.952Z,30.77
2016-06-19T11:18:59.284Z,31.05
2016-06-19T11:19:59.288Z,31.24
2016-06-19T11:20:59.275Z,31.27
2016-06-19T11:21:59.904Z,31.21
2016-06-19T11:22:59.251Z,31.27
2016-06-19T11:23:59.255Z,31.56
2016-06-19T11:24:58.586Z,31.4
2016-06-19T11:25:59.229Z,31.61
2016-06-19T11:26:58.577Z,31.78
2016-06-19T11:27:59.222Z,31.94
2016-06-19T11:28:59.850Z,31.8
2016-06-19T11:29:59.837Z,31.89
2016-06-19T11:30:59.841Z,32.19
2016-06-19T11:31:59.172Z,32.11
2016-06-19T11:32:59.176Z,32.16
2016-06-19T11:33:59.820Z,32.18
2016-06-19T11:34:59.807Z,32.27
2016-06-19T11:35:59.796Z,32.08
2016-06-19T11:36:59.127Z,32.3
2016-06-19T11:37:59.131Z,32.19
2016-06-19T11:38:59.759Z,32.3
2016-06-19T11:39:58.466Z,32.11
2016-06-19T11:40:59.766Z,32.46
2016-06-19T11:41:59.753Z,32.67
2016-06-19T11:42:59.743Z,32.97
2016-06-19T11:43:59.105Z,33.15
2016-06-19T11:44:59.749Z,33.45
2016-06-19T11:45:59.065Z,33.62
2016-06-19T11:46:58.443Z,33.89
2016-06-19T11:47:59.728Z,33.55
2016-06-19T11:48:59.075Z,33.34
2016-06-19T11:49:59.062Z,33.64
2016-06-19T11:50:59.082Z,33.65
2016-06-19T11:51:59.069Z,33.94
2016-06-19T11:52:59.088Z,33.95
2016-06-19T11:53:58.437Z,34.23
2016-06-19T11:54:59.721Z,34.48
2016-06-19T11:55:58.413Z,34.86
2016-06-19T11:56:59.072Z,35.19
2016-06-19T11:57:59.732Z,35.33
2016-06-19T11:58:59.062Z,35.33
2016-06-19T11:59:59.066Z,35.7
2016-06-19T12:00:59.070Z,35.98
2016-06-19T12:01:58.417Z,36.14
2016-06-19T12:02:59.061Z,36
2016-06-19T12:03:58.408Z,36.14
2016-06-19T12:04:59.740Z,35.95
2016-06-19T12:05:59.712Z,35.66
2016-06-19T12:06:59.715Z,35.97
2016-06-19T12:07:59.735Z,36.42
2016-06-19T12:08:59.083Z,36.96
2016-06-19T12:09:59.725Z,36.83
2016-06-19T12:10:59.104Z,36.89
2016-06-19T12:11:59.092Z,36.88
2016-06-19T12:12:58.456Z,36.88
2016-06-19T12:13:59.084Z,36.28
2016-06-19T12:14:59.103Z,36.46
2016-06-19T12:15:59.106Z,36.39
2016-06-19T12:16:59.110Z,36.83
2016-06-19T12:17:59.113Z,37.06
2016-06-19T12:18:59.101Z,36.92
2016-06-19T12:19:59.791Z,36.46
2016-06-19T12:20:59.780Z,36.47
2016-06-19T12:21:58.487Z,36.93
2016-06-19T12:22:59.786Z,37.67
2016-06-19T12:23:59.165Z,37.55
2016-06-19T12:24:59.153Z,36.96
2016-06-19T12:25:59.156Z,37.14
2016-06-19T12:26:59.785Z,36.99
2016-06-19T12:27:58.538Z,37.6
2016-06-19T12:28:59.838Z,38.11
2016-06-19T12:29:59.811Z,37.87
2016-06-19T12:30:59.159Z,37.14
2016-06-19T12:31:59.817Z,37.33
2016-06-19T12:32:59.836Z,37.53
2016-06-19T12:33:59.184Z,38.05
2016-06-19T12:34:59.828Z,38.15
2016-06-19T12:35:59.190Z,38.17
2016-06-19T12:36:58.538Z,38.12
2016-06-19T12:37:59.197Z,38.02
2016-06-19T12:38:59.218Z,37.65
2016-06-19T12:39:59.220Z,37.4
2016-06-19T12:40:59.208Z,37.49
2016-06-19T12:41:58.572Z,37.86
2016-06-19T12:42:58.575Z,38.2
2016-06-19T12:43:59.875Z,37.89
2016-06-19T12:44:59.878Z,37.82
2016-06-19T12:45:59.257Z,38.21
2016-06-19T12:46:58.603Z,38.31
2016-06-19T12:47:59.904Z,38.3
2016-06-19T12:48:59.908Z,38.4
2016-06-19T12:49:59.270Z,38.6
2016-06-19T12:50:59.273Z,38.99
2016-06-19T12:51:58.621Z,39.43
2016-06-19T12:52:59.937Z,39.34
2016-06-19T12:53:59.956Z,39.24
2016-06-19T12:54:58.648Z,38.49
2016-06-19T12:55:59.291Z,38.6